sensor_id;sensor_type;location;lat;lon;timestamp;P1;durP1;ratioP1;P2;durP2;ratioP2
33810;SDS011;20119;48.334;16.206;2023-04-07T00:00:07;18.33;;;11.98;;
33810;SDS011;20119;48.334;16.206;2023-04-07T00:02:35;14.90;;;11.63;;
33810;SDS011;20119;48.334;16.206;2023-04-07T00:05:03;16.88;;;11.98;;
33810;SDS011;20119;48.334;16.206;2023-04-07T00:07:33;14.10;;;11.40;;
33810;SDS011;20119;48.334;16.206;2023-04-07T00:10:00;16.52;;;11.65;;
33810;SDS011;20119;48.334;16.206;2023-04-07T00:12:29;14.48;;;11.52;;
33810;SDS011;20119;48.334;16.206;2023-04-07T00:14:58;14.60;;;11.77;;
33810;SDS011;20119;48.334;16.206;2023-04-07T00:19:55;15.80;;;11.38;;
33810;SDS011;20119;48.334;16.206;2023-04-07T00:22:22;15.27;;;11.93;;
33810;SDS011;20119;48.334;16.206;2023-04-07T00:24:51;13.70;;;11.32;;
33810;SDS011;20119;48.334;16.206;2023-04-07T00:27:22;15.48;;;12.07;;
33810;SDS011;20119;48.334;16.206;2023-04-07T00:29:50;16.55;;;11.93;;
33810;SDS011;20119;48.334;16.206;2023-04-07T00:32:24;16.90;;;12.23;;
33810;SDS011;20119;48.334;16.206;2023-04-07T00:34:51;16.35;;;12.18;;
33810;SDS011;20119;48.334;16.206;2023-04-07T00:37:20;10.70;;;8.57;;
33810;SDS011;20119;48.334;16.206;2023-04-07T00:39:51;15.35;;;11.70;;
33810;SDS011;20119;48.334;16.206;2023-04-07T00:42:20;16.88;;;11.68;;
33810;SDS011;20119;48.334;16.206;2023-04-07T00:44:48;15.15;;;11.88;;
33810;SDS011;20119;48.334;16.206;2023-04-07T00:49:46;13.63;;;11.00;;
33810;SDS011;20119;48.334;16.206;2023-04-07T00:52:15;17.02;;;11.85;;
33810;SDS011;20119;48.334;16.206;2023-04-07T00:54:44;15.15;;;12.02;;
33810;SDS011;20119;48.334;16.206;2023-04-07T00:57:12;15.38;;;11.55;;
33810;SDS011;20119;48.334;16.206;2023-04-07T00:59:40;15.23;;;12.10;;
33810;SDS011;20119;48.334;16.206;2023-04-07T01:02:09;15.70;;;11.95;;
33810;SDS011;20119;48.334;16.206;2023-04-07T01:04:43;17.13;;;12.02;;
33810;SDS011;20119;48.334;16.206;2023-04-07T01:07:17;14.68;;;11.52;;
33810;SDS011;20119;48.334;16.206;2023-04-07T01:10:01;14.63;;;11.70;;
33810;SDS011;20119;48.334;16.206;2023-04-07T01:12:33;15.65;;;11.77;;
33810;SDS011;20119;48.334;16.206;2023-04-07T01:15:06;14.80;;;11.75;;
33810;SDS011;20119;48.334;16.206;2023-04-07T01:17:42;14.80;;;11.60;;
33810;SDS011;20119;48.334;16.206;2023-04-07T01:20:16;15.82;;;11.95;;
33810;SDS011;20119;48.334;16.206;2023-04-07T01:22:48;14.93;;;12.00;;
33810;SDS011;20119;48.334;16.206;2023-04-07T01:25:26;15.60;;;11.48;;
33810;SDS011;20119;48.334;16.206;2023-04-07T01:28:30;16.85;;;11.85;;
33810;SDS011;20119;48.334;16.206;2023-04-07T01:31:12;13.68;;;11.32;;
33810;SDS011;20119;48.334;16.206;2023-04-07T01:33:41;14.90;;;11.27;;
33810;SDS011;20119;48.334;16.206;2023-04-07T01:36:12;16.13;;;11.70;;
33810;SDS011;20119;48.334;16.206;2023-04-07T01:38:41;14.82;;;11.95;;
33810;SDS011;20119;48.334;16.206;2023-04-07T01:41:09;14.27;;;11.68;;
33810;SDS011;20119;48.334;16.206;2023-04-07T01:43:40;15.48;;;11.52;;
33810;SDS011;20119;48.334;16.206;2023-04-07T01:46:08;15.45;;;11.60;;
33810;SDS011;20119;48.334;16.206;2023-04-07T01:48:39;14.68;;;11.68;;
33810;SDS011;20119;48.334;16.206;2023-04-07T01:51:08;13.10;;;10.73;;
33810;SDS011;20119;48.334;16.206;2023-04-07T01:53:41;13.77;;;11.48;;
33810;SDS011;20119;48.334;16.206;2023-04-07T01:56:09;16.65;;;12.02;;
33810;SDS011;20119;48.334;16.206;2023-04-07T01:58:37;16.30;;;11.65;;
33810;SDS011;20119;48.334;16.206;2023-04-07T02:01:09;13.70;;;11.05;;
33810;SDS011;20119;48.334;16.206;2023-04-07T02:03:42;14.57;;;11.32;;
33810;SDS011;20119;48.334;16.206;2023-04-07T02:06:13;14.05;;;11.20;;
33810;SDS011;20119;48.334;16.206;2023-04-07T02:08:45;16.25;;;11.98;;
33810;SDS011;20119;48.334;16.206;2023-04-07T02:11:15;17.55;;;11.43;;
33810;SDS011;20119;48.334;16.206;2023-04-07T02:13:46;15.32;;;11.18;;
33810;SDS011;20119;48.334;16.206;2023-04-07T02:16:16;16.35;;;11.38;;
33810;SDS011;20119;48.334;16.206;2023-04-07T02:18:47;15.40;;;11.85;;
33810;SDS011;20119;48.334;16.206;2023-04-07T02:21:17;15.60;;;11.75;;
33810;SDS011;20119;48.334;16.206;2023-04-07T02:23:46;16.55;;;11.90;;
33810;SDS011;20119;48.334;16.206;2023-04-07T02:26:13;14.90;;;11.30;;
33810;SDS011;20119;48.334;16.206;2023-04-07T02:28:40;14.77;;;11.02;;
33810;SDS011;20119;48.334;16.206;2023-04-07T02:31:08;16.83;;;11.25;;
33810;SDS011;20119;48.334;16.206;2023-04-07T02:33:37;15.90;;;11.60;;
33810;SDS011;20119;48.334;16.206;2023-04-07T02:36:07;14.35;;;11.15;;
33810;SDS011;20119;48.334;16.206;2023-04-07T02:38:36;14.83;;;11.80;;
33810;SDS011;20119;48.334;16.206;2023-04-07T02:41:05;14.48;;;11.77;;
33810;SDS011;20119;48.334;16.206;2023-04-07T02:43:33;14.80;;;11.32;;
33810;SDS011;20119;48.334;16.206;2023-04-07T02:46:00;16.02;;;11.77;;
33810;SDS011;20119;48.334;16.206;2023-04-07T02:48:28;15.55;;;11.65;;
33810;SDS011;20119;48.334;16.206;2023-04-07T02:50:57;17.20;;;12.35;;
33810;SDS011;20119;48.334;16.206;2023-04-07T02:53:26;15.70;;;12.23;;
33810;SDS011;20119;48.334;16.206;2023-04-07T02:55:53;16.30;;;11.93;;
33810;SDS011;20119;48.334;16.206;2023-04-07T02:58:22;19.50;;;12.45;;
33810;SDS011;20119;48.334;16.206;2023-04-07T03:00:50;16.33;;;12.40;;
33810;SDS011;20119;48.334;16.206;2023-04-07T03:03:22;16.10;;;11.77;;
33810;SDS011;20119;48.334;16.206;2023-04-07T03:05:50;16.83;;;12.38;;
33810;SDS011;20119;48.334;16.206;2023-04-07T03:08:17;15.27;;;11.68;;
33810;SDS011;20119;48.334;16.206;2023-04-07T03:10:46;16.05;;;12.52;;
33810;SDS011;20119;48.334;16.206;2023-04-07T03:13:14;14.70;;;11.40;;
33810;SDS011;20119;48.334;16.206;2023-04-07T03:15:43;15.07;;;11.65;;
33810;SDS011;20119;48.334;16.206;2023-04-07T03:18:13;15.55;;;12.05;;
33810;SDS011;20119;48.334;16.206;2023-04-07T03:20:40;16.98;;;12.50;;
33810;SDS011;20119;48.334;16.206;2023-04-07T03:23:08;16.77;;;11.65;;
33810;SDS011;20119;48.334;16.206;2023-04-07T03:25:36;15.75;;;12.10;;
33810;SDS011;20119;48.334;16.206;2023-04-07T03:28:04;18.38;;;12.57;;
33810;SDS011;20119;48.334;16.206;2023-04-07T03:30:32;16.65;;;12.38;;
33810;SDS011;20119;48.334;16.206;2023-04-07T03:32:59;15.90;;;11.45;;
33810;SDS011;20119;48.334;16.206;2023-04-07T03:35:27;15.68;;;12.30;;
33810;SDS011;20119;48.334;16.206;2023-04-07T03:37:54;15.82;;;12.52;;
33810;SDS011;20119;48.334;16.206;2023-04-07T03:40:22;18.10;;;12.85;;
33810;SDS011;20119;48.334;16.206;2023-04-07T03:42:50;17.38;;;12.23;;
33810;SDS011;20119;48.334;16.206;2023-04-07T03:45:23;17.15;;;13.00;;
33810;SDS011;20119;48.334;16.206;2023-04-07T03:47:51;17.60;;;12.50;;
33810;SDS011;20119;48.334;16.206;2023-04-07T03:50:19;15.73;;;12.60;;
33810;SDS011;20119;48.334;16.206;2023-04-07T03:52:51;17.13;;;13.32;;
33810;SDS011;20119;48.334;16.206;2023-04-07T03:55:20;16.80;;;12.68;;
33810;SDS011;20119;48.334;16.206;2023-04-07T03:57:50;15.70;;;12.38;;
33810;SDS011;20119;48.334;16.206;2023-04-07T04:00:20;18.13;;;13.90;;
33810;SDS011;20119;48.334;16.206;2023-04-07T04:02:48;17.38;;;13.68;;
33810;SDS011;20119;48.334;16.206;2023-04-07T04:05:16;16.52;;;12.82;;
33810;SDS011;20119;48.334;16.206;2023-04-07T04:07:44;18.90;;;13.80;;
33810;SDS011;20119;48.334;16.206;2023-04-07T04:10:12;17.15;;;13.27;;
33810;SDS011;20119;48.334;16.206;2023-04-07T04:12:40;17.38;;;13.52;;
33810;SDS011;20119;48.334;16.206;2023-04-07T04:15:08;17.38;;;12.85;;
33810;SDS011;20119;48.334;16.206;2023-04-07T04:17:39;16.30;;;13.40;;
33810;SDS011;20119;48.334;16.206;2023-04-07T04:20:07;15.80;;;13.02;;
33810;SDS011;20119;48.334;16.206;2023-04-07T04:22:35;20.45;;;13.30;;
33810;SDS011;20119;48.334;16.206;2023-04-07T04:25:03;17.05;;;12.88;;
33810;SDS011;20119;48.334;16.206;2023-04-07T04:27:31;18.17;;;13.00;;
33810;SDS011;20119;48.334;16.206;2023-04-07T04:30:00;18.08;;;13.05;;
33810;SDS011;20119;48.334;16.206;2023-04-07T04:32:28;17.15;;;12.80;;
33810;SDS011;20119;48.334;16.206;2023-04-07T04:34:59;16.10;;;12.70;;
33810;SDS011;20119;48.334;16.206;2023-04-07T04:37:26;19.30;;;14.15;;
33810;SDS011;20119;48.334;16.206;2023-04-07T04:39:55;15.77;;;12.85;;
33810;SDS011;20119;48.334;16.206;2023-04-07T04:42:26;16.95;;;13.07;;
33810;SDS011;20119;48.334;16.206;2023-04-07T04:44:55;18.45;;;13.68;;
33810;SDS011;20119;48.334;16.206;2023-04-07T04:47:25;16.25;;;13.10;;
33810;SDS011;20119;48.334;16.206;2023-04-07T04:49:52;17.52;;;14.05;;
33810;SDS011;20119;48.334;16.206;2023-04-07T04:52:25;17.88;;;14.13;;
33810;SDS011;20119;48.334;16.206;2023-04-07T04:54:53;15.90;;;13.80;;
33810;SDS011;20119;48.334;16.206;2023-04-07T04:57:21;17.17;;;13.55;;
33810;SDS011;20119;48.334;16.206;2023-04-07T04:59:49;17.52;;;13.30;;
33810;SDS011;20119;48.334;16.206;2023-04-07T05:02:17;17.65;;;13.90;;
33810;SDS011;20119;48.334;16.206;2023-04-07T05:04:46;16.00;;;13.57;;
33810;SDS011;20119;48.334;16.206;2023-04-07T05:07:13;17.90;;;13.70;;
33810;SDS011;20119;48.334;16.206;2023-04-07T05:09:43;19.10;;;13.35;;
33810;SDS011;20119;48.334;16.206;2023-04-07T05:12:10;17.30;;;13.57;;
33810;SDS011;20119;48.334;16.206;2023-04-07T05:14:38;17.20;;;13.48;;
33810;SDS011;20119;48.334;16.206;2023-04-07T05:17:06;17.50;;;13.48;;
33810;SDS011;20119;48.334;16.206;2023-04-07T05:19:33;17.13;;;13.27;;
33810;SDS011;20119;48.334;16.206;2023-04-07T05:22:01;17.85;;;13.93;;
33810;SDS011;20119;48.334;16.206;2023-04-07T05:24:29;17.92;;;13.07;;
33810;SDS011;20119;48.334;16.206;2023-04-07T05:26:58;17.27;;;13.27;;
33810;SDS011;20119;48.334;16.206;2023-04-07T05:29:26;16.93;;;13.90;;
33810;SDS011;20119;48.334;16.206;2023-04-07T05:31:53;19.58;;;14.05;;
33810;SDS011;20119;48.334;16.206;2023-04-07T05:34:21;22.45;;;14.02;;
33810;SDS011;20119;48.334;16.206;2023-04-07T05:36:49;17.30;;;13.60;;
33810;SDS011;20119;48.334;16.206;2023-04-07T05:39:17;16.70;;;13.00;;
33810;SDS011;20119;48.334;16.206;2023-04-07T05:41:44;18.40;;;13.52;;
33810;SDS011;20119;48.334;16.206;2023-04-07T05:44:15;16.75;;;13.88;;
33810;SDS011;20119;48.334;16.206;2023-04-07T05:46:42;17.77;;;13.40;;
33810;SDS011;20119;48.334;16.206;2023-04-07T05:49:10;19.60;;;13.70;;
33810;SDS011;20119;48.334;16.206;2023-04-07T05:51:40;19.75;;;13.93;;
33810;SDS011;20119;48.334;16.206;2023-04-07T05:54:08;16.73;;;13.65;;
33810;SDS011;20119;48.334;16.206;2023-04-07T05:56:35;19.40;;;13.68;;
33810;SDS011;20119;48.334;16.206;2023-04-07T05:59:03;17.67;;;13.73;;
33810;SDS011;20119;48.334;16.206;2023-04-07T06:01:34;18.88;;;13.98;;
33810;SDS011;20119;48.334;16.206;2023-04-07T06:04:03;16.80;;;14.00;;
33810;SDS011;20119;48.334;16.206;2023-04-07T06:06:30;18.25;;;13.77;;
33810;SDS011;20119;48.334;16.206;2023-04-07T06:08:58;20.23;;;14.32;;
33810;SDS011;20119;48.334;16.206;2023-04-07T06:11:26;17.08;;;14.57;;
33810;SDS011;20119;48.334;16.206;2023-04-07T06:13:54;24.30;;;14.93;;
33810;SDS011;20119;48.334;16.206;2023-04-07T06:16:22;20.13;;;13.82;;
33810;SDS011;20119;48.334;16.206;2023-04-07T06:18:50;18.55;;;13.80;;
33810;SDS011;20119;48.334;16.206;2023-04-07T06:21:17;20.52;;;13.95;;
33810;SDS011;20119;48.334;16.206;2023-04-07T06:23:45;18.27;;;13.60;;
33810;SDS011;20119;48.334;16.206;2023-04-07T06:26:13;17.58;;;13.73;;
33810;SDS011;20119;48.334;16.206;2023-04-07T06:28:40;17.38;;;13.60;;
33810;SDS011;20119;48.334;16.206;2023-04-07T06:31:08;19.00;;;13.23;;
33810;SDS011;20119;48.334;16.206;2023-04-07T06:33:35;20.17;;;13.85;;
33810;SDS011;20119;48.334;16.206;2023-04-07T06:36:06;19.23;;;14.40;;
33810;SDS011;20119;48.334;16.206;2023-04-07T06:38:34;20.73;;;13.83;;
33810;SDS011;20119;48.334;16.206;2023-04-07T06:41:01;21.08;;;14.57;;
33810;SDS011;20119;48.334;16.206;2023-04-07T06:43:29;18.73;;;14.63;;
33810;SDS011;20119;48.334;16.206;2023-04-07T06:45:57;19.85;;;14.30;;
33810;SDS011;20119;48.334;16.206;2023-04-07T06:48:25;20.05;;;14.15;;
33810;SDS011;20119;48.334;16.206;2023-04-07T06:50:53;18.13;;;13.82;;
33810;SDS011;20119;48.334;16.206;2023-04-07T06:53:23;16.25;;;13.27;;
33810;SDS011;20119;48.334;16.206;2023-04-07T06:55:51;17.33;;;13.53;;
33810;SDS011;20119;48.334;16.206;2023-04-07T06:58:30;18.98;;;14.50;;
33810;SDS011;20119;48.334;16.206;2023-04-07T07:00:59;17.10;;;13.93;;
33810;SDS011;20119;48.334;16.206;2023-04-07T07:03:27;18.27;;;13.93;;
33810;SDS011;20119;48.334;16.206;2023-04-07T07:05:56;18.05;;;13.35;;
33810;SDS011;20119;48.334;16.206;2023-04-07T07:08:26;17.88;;;13.55;;
33810;SDS011;20119;48.334;16.206;2023-04-07T07:13:22;18.52;;;13.15;;
33810;SDS011;20119;48.334;16.206;2023-04-07T07:15:51;18.50;;;13.27;;
33810;SDS011;20119;48.334;16.206;2023-04-07T07:18:19;18.05;;;12.98;;
33810;SDS011;20119;48.334;16.206;2023-04-07T07:20:47;19.58;;;13.52;;
33810;SDS011;20119;48.334;16.206;2023-04-07T07:23:15;18.80;;;12.88;;
33810;SDS011;20119;48.334;16.206;2023-04-07T07:25:45;15.77;;;12.55;;
33810;SDS011;20119;48.334;16.206;2023-04-07T07:28:12;15.38;;;12.05;;
33810;SDS011;20119;48.334;16.206;2023-04-07T07:30:40;13.88;;;11.52;;
33810;SDS011;20119;48.334;16.206;2023-04-07T07:33:12;18.52;;;11.98;;
33810;SDS011;20119;48.334;16.206;2023-04-07T07:35:39;15.30;;;11.35;;
33810;SDS011;20119;48.334;16.206;2023-04-07T07:38:07;20.13;;;12.80;;
33810;SDS011;20119;48.334;16.206;2023-04-07T07:40:35;14.48;;;11.88;;
33810;SDS011;20119;48.334;16.206;2023-04-07T07:43:04;16.25;;;11.80;;
33810;SDS011;20119;48.334;16.206;2023-04-07T07:45:32;17.15;;;12.55;;
33810;SDS011;20119;48.334;16.206;2023-04-07T07:47:59;17.50;;;12.40;;
33810;SDS011;20119;48.334;16.206;2023-04-07T07:50:28;14.75;;;11.35;;
33810;SDS011;20119;48.334;16.206;2023-04-07T07:52:57;15.43;;;11.27;;
33810;SDS011;20119;48.334;16.206;2023-04-07T07:55:26;13.60;;;10.90;;
33810;SDS011;20119;48.334;16.206;2023-04-07T07:57:54;15.15;;;11.65;;
33810;SDS011;20119;48.334;16.206;2023-04-07T08:00:25;19.48;;;11.40;;
33810;SDS011;20119;48.334;16.206;2023-04-07T08:02:52;15.02;;;11.48;;
33810;SDS011;20119;48.334;16.206;2023-04-07T08:05:20;17.88;;;12.30;;
33810;SDS011;20119;48.334;16.206;2023-04-07T08:07:47;18.05;;;10.73;;
33810;SDS011;20119;48.334;16.206;2023-04-07T08:10:14;15.68;;;11.52;;
33810;SDS011;20119;48.334;16.206;2023-04-07T08:12:44;16.40;;;11.70;;
33810;SDS011;20119;48.334;16.206;2023-04-07T08:15:12;15.48;;;11.38;;
33810;SDS011;20119;48.334;16.206;2023-04-07T08:17:41;14.95;;;11.52;;
33810;SDS011;20119;48.334;16.206;2023-04-07T08:20:09;15.75;;;11.05;;
33810;SDS011;20119;48.334;16.206;2023-04-07T08:22:37;14.55;;;11.15;;
33810;SDS011;20119;48.334;16.206;2023-04-07T08:25:05;16.85;;;11.85;;
33810;SDS011;20119;48.334;16.206;2023-04-07T08:27:34;15.90;;;11.80;;
33810;SDS011;20119;48.334;16.206;2023-04-07T08:30:03;16.25;;;11.70;;
33810;SDS011;20119;48.334;16.206;2023-04-07T08:32:35;15.18;;;11.38;;
33810;SDS011;20119;48.334;16.206;2023-04-07T08:35:05;17.77;;;11.82;;
33810;SDS011;20119;48.334;16.206;2023-04-07T08:37:33;16.88;;;11.70;;
33810;SDS011;20119;48.334;16.206;2023-04-07T08:40:01;15.20;;;11.88;;
33810;SDS011;20119;48.334;16.206;2023-04-07T08:42:29;14.90;;;11.45;;
33810;SDS011;20119;48.334;16.206;2023-04-07T08:45:00;14.60;;;11.48;;
33810;SDS011;20119;48.334;16.206;2023-04-07T08:47:31;18.33;;;12.15;;
33810;SDS011;20119;48.334;16.206;2023-04-07T08:50:00;17.23;;;11.80;;
33810;SDS011;20119;48.334;16.206;2023-04-07T08:52:33;17.48;;;11.50;;
33810;SDS011;20119;48.334;16.206;2023-04-07T08:55:06;17.35;;;11.65;;
33810;SDS011;20119;48.334;16.206;2023-04-07T08:57:35;15.88;;;11.68;;
33810;SDS011;20119;48.334;16.206;2023-04-07T09:00:03;19.80;;;11.73;;
33810;SDS011;20119;48.334;16.206;2023-04-07T09:02:33;14.97;;;11.43;;
33810;SDS011;20119;48.334;16.206;2023-04-07T09:05:02;18.52;;;11.98;;
33810;SDS011;20119;48.334;16.206;2023-04-07T09:07:31;18.73;;;11.95;;
33810;SDS011;20119;48.334;16.206;2023-04-07T09:10:01;16.02;;;11.23;;
33810;SDS011;20119;48.334;16.206;2023-04-07T09:12:30;15.40;;;11.40;;
33810;SDS011;20119;48.334;16.206;2023-04-07T09:14:58;18.63;;;11.57;;
33810;SDS011;20119;48.334;16.206;2023-04-07T09:17:27;18.00;;;12.60;;
33810;SDS011;20119;48.334;16.206;2023-04-07T09:19:55;20.27;;;13.00;;
33810;SDS011;20119;48.334;16.206;2023-04-07T09:22:36;22.88;;;19.17;;
33810;SDS011;20119;48.334;16.206;2023-04-07T09:25:13;19.20;;;13.07;;
33810;SDS011;20119;48.334;16.206;2023-04-07T09:27:55;16.60;;;11.68;;
33810;SDS011;20119;48.334;16.206;2023-04-07T09:30:24;15.38;;;11.75;;
33810;SDS011;20119;48.334;16.206;2023-04-07T09:32:52;13.60;;;11.65;;
33810;SDS011;20119;48.334;16.206;2023-04-07T09:35:20;14.55;;;11.73;;
33810;SDS011;20119;48.334;16.206;2023-04-07T09:38:03;14.65;;;11.20;;
33810;SDS011;20119;48.334;16.206;2023-04-07T09:40:31;14.95;;;11.38;;
33810;SDS011;20119;48.334;16.206;2023-04-07T09:42:58;16.02;;;11.38;;
33810;SDS011;20119;48.334;16.206;2023-04-07T09:45:27;15.00;;;10.98;;
33810;SDS011;20119;48.334;16.206;2023-04-07T09:47:56;14.15;;;11.18;;
33810;SDS011;20119;48.334;16.206;2023-04-07T09:50:30;15.93;;;11.48;;
33810;SDS011;20119;48.334;16.206;2023-04-07T09:52:59;16.63;;;12.27;;
33810;SDS011;20119;48.334;16.206;2023-04-07T09:55:30;15.35;;;11.98;;
33810;SDS011;20119;48.334;16.206;2023-04-07T09:57:57;16.98;;;11.88;;
33810;SDS011;20119;48.334;16.206;2023-04-07T10:00:25;16.08;;;12.30;;
33810;SDS011;20119;48.334;16.206;2023-04-07T10:02:53;19.90;;;13.60;;
33810;SDS011;20119;48.334;16.206;2023-04-07T10:05:21;18.75;;;13.82;;
33810;SDS011;20119;48.334;16.206;2023-04-07T10:07:50;18.40;;;12.38;;
33810;SDS011;20119;48.334;16.206;2023-04-07T10:10:19;17.63;;;12.27;;
33810;SDS011;20119;48.334;16.206;2023-04-07T10:12:48;17.30;;;12.52;;
33810;SDS011;20119;48.334;16.206;2023-04-07T10:15:17;15.55;;;12.23;;
33810;SDS011;20119;48.334;16.206;2023-04-07T10:17:46;15.35;;;11.93;;
33810;SDS011;20119;48.334;16.206;2023-04-07T10:20:14;15.10;;;12.05;;
33810;SDS011;20119;48.334;16.206;2023-04-07T10:22:47;16.35;;;12.35;;
33810;SDS011;20119;48.334;16.206;2023-04-07T10:25:18;19.13;;;12.60;;
33810;SDS011;20119;48.334;16.206;2023-04-07T10:27:51;16.80;;;12.32;;
33810;SDS011;20119;48.334;16.206;2023-04-07T10:30:22;17.35;;;12.65;;
33810;SDS011;20119;48.334;16.206;2023-04-07T10:32:53;15.13;;;11.77;;
33810;SDS011;20119;48.334;16.206;2023-04-07T10:35:21;16.52;;;11.52;;
33810;SDS011;20119;48.334;16.206;2023-04-07T10:38:09;16.08;;;11.48;;
33810;SDS011;20119;48.334;16.206;2023-04-07T10:40:39;15.80;;;12.27;;
33810;SDS011;20119;48.334;16.206;2023-04-07T10:43:08;14.50;;;11.63;;
33810;SDS011;20119;48.334;16.206;2023-04-07T10:45:56;18.70;;;11.60;;
33810;SDS011;20119;48.334;16.206;2023-04-07T10:48:26;13.70;;;11.30;;
33810;SDS011;20119;48.334;16.206;2023-04-07T10:51:12;15.98;;;11.38;;
33810;SDS011;20119;48.334;16.206;2023-04-07T10:59:38;16.75;;;11.07;;
33810;SDS011;20119;48.334;16.206;2023-04-07T11:02:30;14.05;;;11.48;;
33810;SDS011;20119;48.334;16.206;2023-04-07T11:07:44;13.10;;;11.05;;
33810;SDS011;20119;48.334;16.206;2023-04-07T11:10:18;20.10;;;11.52;;
33810;SDS011;20119;48.334;16.206;2023-04-07T11:12:59;16.45;;;12.05;;
33810;SDS011;20119;48.334;16.206;2023-04-07T11:15:29;13.93;;;11.13;;
33810;SDS011;20119;48.334;16.206;2023-04-07T11:18:09;13.98;;;10.98;;
33810;SDS011;20119;48.334;16.206;2023-04-07T11:20:42;14.23;;;10.60;;
33810;SDS011;20119;48.334;16.206;2023-04-07T11:23:10;14.57;;;11.18;;
33810;SDS011;20119;48.334;16.206;2023-04-07T11:25:38;12.73;;;10.77;;
33810;SDS011;20119;48.334;16.206;2023-04-07T11:28:09;13.77;;;10.57;;
33810;SDS011;20119;48.334;16.206;2023-04-07T11:30:48;13.57;;;10.77;;
33810;SDS011;20119;48.334;16.206;2023-04-07T11:33:17;15.73;;;10.82;;
33810;SDS011;20119;48.334;16.206;2023-04-07T11:35:47;13.90;;;10.87;;
33810;SDS011;20119;48.334;16.206;2023-04-07T11:38:20;14.23;;;10.50;;
33810;SDS011;20119;48.334;16.206;2023-04-07T11:40:51;17.15;;;10.50;;
33810;SDS011;20119;48.334;16.206;2023-04-07T11:43:21;12.48;;;10.35;;
33810;SDS011;20119;48.334;16.206;2023-04-07T11:46:04;17.25;;;10.25;;
33810;SDS011;20119;48.334;16.206;2023-04-07T11:48:33;12.77;;;10.20;;
33810;SDS011;20119;48.334;16.206;2023-04-07T11:51:01;16.65;;;10.90;;
33810;SDS011;20119;48.334;16.206;2023-04-07T11:53:30;12.95;;;10.60;;
33810;SDS011;20119;48.334;16.206;2023-04-07T11:56:02;16.17;;;12.10;;
33810;SDS011;20119;48.334;16.206;2023-04-07T11:58:31;12.98;;;10.02;;
33810;SDS011;20119;48.334;16.206;2023-04-07T12:01:02;12.75;;;10.35;;
33810;SDS011;20119;48.334;16.206;2023-04-07T12:03:33;12.23;;;10.43;;
33810;SDS011;20119;48.334;16.206;2023-04-07T12:06:02;13.35;;;10.77;;
33810;SDS011;20119;48.334;16.206;2023-04-07T12:08:41;12.35;;;10.15;;
33810;SDS011;20119;48.334;16.206;2023-04-07T12:11:10;13.20;;;9.73;;
33810;SDS011;20119;48.334;16.206;2023-04-07T12:13:37;13.98;;;10.43;;
33810;SDS011;20119;48.334;16.206;2023-04-07T12:16:07;13.27;;;9.93;;
33810;SDS011;20119;48.334;16.206;2023-04-07T12:18:35;11.48;;;9.48;;
33810;SDS011;20119;48.334;16.206;2023-04-07T12:21:03;11.55;;;9.27;;
33810;SDS011;20119;48.334;16.206;2023-04-07T12:23:31;13.82;;;9.25;;
33810;SDS011;20119;48.334;16.206;2023-04-07T12:25:58;11.82;;;9.65;;
33810;SDS011;20119;48.334;16.206;2023-04-07T12:28:26;12.18;;;9.60;;
33810;SDS011;20119;48.334;16.206;2023-04-07T12:30:54;12.18;;;9.32;;
33810;SDS011;20119;48.334;16.206;2023-04-07T12:33:23;12.82;;;9.80;;
33810;SDS011;20119;48.334;16.206;2023-04-07T12:35:50;12.30;;;9.10;;
33810;SDS011;20119;48.334;16.206;2023-04-07T12:38:18;14.73;;;9.43;;
33810;SDS011;20119;48.334;16.206;2023-04-07T12:40:45;14.85;;;10.15;;
33810;SDS011;20119;48.334;16.206;2023-04-07T12:43:12;16.02;;;9.65;;
33810;SDS011;20119;48.334;16.206;2023-04-07T12:45:40;13.18;;;10.20;;
33810;SDS011;20119;48.334;16.206;2023-04-07T12:48:07;13.85;;;10.10;;
33810;SDS011;20119;48.334;16.206;2023-04-07T12:50:37;14.43;;;10.50;;
33810;SDS011;20119;48.334;16.206;2023-04-07T12:53:04;12.83;;;10.10;;
33810;SDS011;20119;48.334;16.206;2023-04-07T12:55:32;13.93;;;9.77;;
33810;SDS011;20119;48.334;16.206;2023-04-07T12:58:00;15.45;;;10.30;;
33810;SDS011;20119;48.334;16.206;2023-04-07T13:00:29;13.48;;;9.77;;
33810;SDS011;20119;48.334;16.206;2023-04-07T13:02:57;12.73;;;10.02;;
33810;SDS011;20119;48.334;16.206;2023-04-07T13:05:24;13.32;;;9.82;;
33810;SDS011;20119;48.334;16.206;2023-04-07T13:07:54;13.82;;;9.48;;
33810;SDS011;20119;48.334;16.206;2023-04-07T13:10:23;14.10;;;9.63;;
33810;SDS011;20119;48.334;16.206;2023-04-07T13:12:51;14.05;;;9.05;;
33810;SDS011;20119;48.334;16.206;2023-04-07T13:15:18;13.65;;;9.60;;
33810;SDS011;20119;48.334;16.206;2023-04-07T13:17:45;10.98;;;9.23;;
33810;SDS011;20119;48.334;16.206;2023-04-07T13:20:13;11.35;;;9.05;;
33810;SDS011;20119;48.334;16.206;2023-04-07T13:22:41;13.75;;;10.00;;
33810;SDS011;20119;48.334;16.206;2023-04-07T13:25:10;13.52;;;10.18;;
33810;SDS011;20119;48.334;16.206;2023-04-07T13:27:37;14.15;;;10.43;;
33810;SDS011;20119;48.334;16.206;2023-04-07T13:30:05;18.45;;;11.23;;
33810;SDS011;20119;48.334;16.206;2023-04-07T13:32:34;14.77;;;10.77;;
33810;SDS011;20119;48.334;16.206;2023-04-07T13:35:02;17.52;;;11.30;;
33810;SDS011;20119;48.334;16.206;2023-04-07T13:37:29;17.15;;;10.55;;
33810;SDS011;20119;48.334;16.206;2023-04-07T13:39:57;16.55;;;10.43;;
33810;SDS011;20119;48.334;16.206;2023-04-07T13:42:26;15.07;;;10.55;;
33810;SDS011;20119;48.334;16.206;2023-04-07T13:44:53;12.00;;;9.85;;
33810;SDS011;20119;48.334;16.206;2023-04-07T13:47:20;13.20;;;9.52;;
33810;SDS011;20119;48.334;16.206;2023-04-07T13:49:49;12.23;;;9.45;;
33810;SDS011;20119;48.334;16.206;2023-04-07T13:52:17;10.23;;;8.50;;
33810;SDS011;20119;48.334;16.206;2023-04-07T13:54:44;11.80;;;8.90;;
33810;SDS011;20119;48.334;16.206;2023-04-07T13:57:11;12.93;;;9.70;;
33810;SDS011;20119;48.334;16.206;2023-04-07T13:59:46;12.48;;;8.52;;
33810;SDS011;20119;48.334;16.206;2023-04-07T14:02:16;13.63;;;9.43;;
33810;SDS011;20119;48.334;16.206;2023-04-07T14:04:43;10.88;;;8.55;;
33810;SDS011;20119;48.334;16.206;2023-04-07T14:07:12;12.88;;;9.23;;
33810;SDS011;20119;48.334;16.206;2023-04-07T14:09:40;11.50;;;8.73;;
33810;SDS011;20119;48.334;16.206;2023-04-07T14:12:08;13.50;;;8.85;;
33810;SDS011;20119;48.334;16.206;2023-04-07T14:14:35;12.77;;;8.93;;
33810;SDS011;20119;48.334;16.206;2023-04-07T14:17:04;10.60;;;8.15;;
33810;SDS011;20119;48.334;16.206;2023-04-07T14:19:32;11.00;;;8.63;;
33810;SDS011;20119;48.334;16.206;2023-04-07T14:21:59;10.50;;;8.00;;
33810;SDS011;20119;48.334;16.206;2023-04-07T14:24:27;12.02;;;8.80;;
33810;SDS011;20119;48.334;16.206;2023-04-07T14:26:55;13.98;;;9.27;;
33810;SDS011;20119;48.334;16.206;2023-04-07T14:29:23;10.15;;;8.30;;
33810;SDS011;20119;48.334;16.206;2023-04-07T14:31:50;10.68;;;8.30;;
33810;SDS011;20119;48.334;16.206;2023-04-07T14:34:19;11.38;;;8.90;;
33810;SDS011;20119;48.334;16.206;2023-04-07T14:36:51;13.48;;;8.70;;
33810;SDS011;20119;48.334;16.206;2023-04-07T14:39:20;12.57;;;8.63;;